Terminal Aerodrome Forecast
Issued by NWS

Home | Current Version | Previous Version | Text Only | Print | Product List | Glossary On
Versions: 1 2 3 4 5 6 7 8 9 10 11 12 13 14 15 16 17 18 19 20 21 22
000
FTUS45 KGJT 231143
TAFASE
TAF
KASE 231143Z 2312/2412 VRB03KT P6SM VCSH BKN040 OVC070
      TEMPO 2314/2316 5SM -SHSN BR BKN030 OVC040
     FM231900 20007KT 5SM -SHSN OVC040
     FM240200 12004KT 3SM -SHSN SCT035 OVC040
     FM240400 VRB03KT 2SM -SHSN BKN020 OVC035
     FM240900 35004KT P6SM BKN020 OVC035=

USA.gov is the U.S. government's official web portal to all federal, state and local government web resources and services.